createdAt,value
2019-01-11T00:04:42.566Z,96247.64
2019-01-11T00:07:51.228Z,96243.81
2019-01-11T00:10:41.091Z,96243.81
2019-01-11T00:13:31.572Z,96245.06
2019-01-11T00:16:21.103Z,96242.81
2019-01-11T00:19:10.820Z,96248.09
2019-01-11T00:22:00.595Z,96240.08
2019-01-11T00:24:50.362Z,96251.46
2019-01-11T00:27:40.624Z,96252.80
2019-01-11T00:30:30.792Z,96259.05
2019-01-11T00:33:21.290Z,96262.59
2019-01-11T00:36:11.942Z,96261.72
2019-01-11T00:39:02.140Z,96263.91
2019-01-11T00:41:52.009Z,96260.45
2019-01-11T00:44:42.147Z,96255.83
2019-01-11T00:47:31.931Z,96255.28
2019-01-11T00:53:32.842Z,96257.13
2019-01-11T00:56:23.070Z,96255.12
2019-01-11T00:59:13.079Z,96259.26
2019-01-11T01:02:03.245Z,96250.72
2019-01-11T01:04:53.028Z,96255.92
2019-01-11T01:07:43.160Z,96260.17
2019-01-11T01:10:33.149Z,96264.09
2019-01-11T01:13:24.159Z,96263.93
2019-01-11T01:16:14.205Z,96268.00
2019-01-11T01:19:03.882Z,96270.91
2019-01-11T01:21:53.962Z,96268.18
2019-01-11T01:24:44.086Z,96274.00
2019-01-11T01:27:33.907Z,96268.78
2019-01-11T01:30:23.842Z,96277.92
2019-01-11T01:33:13.758Z,96277.50
2019-01-11T01:39:33.120Z,96280.65
2019-01-11T01:42:22.807Z,96287.34
2019-01-11T01:45:14.341Z,96291.56
2019-01-11T01:48:04.138Z,96296.63
2019-01-11T01:50:53.924Z,96299.89
2019-01-11T01:53:43.628Z,96295.92
2019-01-11T01:56:33.149Z,96295.48
2019-01-11T01:59:23.483Z,96298.19
2019-01-11T02:02:13.931Z,96303.74
2019-01-11T02:05:07.361Z,96297.25
2019-01-11T02:07:57.379Z,96298.39
2019-01-11T02:10:47.410Z,96304.25
2019-01-11T02:13:37.029Z,96305.84
2019-01-11T02:16:26.747Z,96310.34
2019-01-11T02:19:16.257Z,96310.15
2019-01-11T02:22:06.046Z,96312.33
2019-01-11T02:24:56.055Z,96312.16
2019-01-11T02:27:46.156Z,96317.99
2019-01-11T02:30:36.237Z,96310.86
2019-01-11T02:33:26.487Z,96310.16
2019-01-11T02:36:16.025Z,96312.98
2019-01-11T02:39:46.628Z,96306.78
2019-01-11T02:42:36.151Z,96309.66
2019-01-11T02:45:28.057Z,96307.13
2019-01-11T02:48:17.503Z,96302.88
2019-01-11T02:51:07.258Z,96301.56
2019-01-11T02:53:57.410Z,96293.29
2019-01-11T02:56:47.438Z,96289.42
2019-01-11T02:59:36.891Z,96291.43
2019-01-11T03:02:27.058Z,96281.52
2019-01-11T03:05:56.209Z,96273.96
2019-01-11T03:08:46.105Z,96287.70
2019-01-11T03:11:35.999Z,96283.61
2019-01-11T03:14:25.908Z,96278.73
2019-01-11T03:17:16.593Z,96276.73
2019-01-11T03:20:46.315Z,96272.09
2019-01-11T03:23:36.246Z,96274.64
2019-01-11T03:26:25.860Z,96274.00
2019-01-11T03:29:15.519Z,96268.00
2019-01-11T03:32:05.709Z,96267.78
2019-01-11T03:35:08.266Z,96266.54
2019-01-11T03:37:57.802Z,96271.82
2019-01-11T03:40:48.052Z,96269.36
2019-01-11T03:43:38.071Z,96276.00
2019-01-11T03:46:28.094Z,96278.88
2019-01-11T03:49:18.514Z,96277.16
2019-01-11T03:52:08.100Z,96271.27
2019-01-11T03:54:58.244Z,96273.00
2019-01-11T03:57:47.928Z,96276.28
2019-01-11T04:00:38.481Z,96280.24
2019-01-11T04:03:28.931Z,96277.61
2019-01-11T04:06:18.474Z,96276.70
2019-01-11T04:09:10.886Z,96282.64
2019-01-11T04:12:00.845Z,96276.19
2019-01-11T04:14:50.822Z,96272.36
2019-01-11T04:17:40.879Z,96274.64
2019-01-11T04:20:30.532Z,96279.02
2019-01-11T04:23:20.087Z,96288.75
2019-01-11T04:26:10.845Z,96283.28
2019-01-11T04:29:00.874Z,96287.11
2019-01-11T04:31:55.125Z,96288.56
2019-01-11T04:34:45.092Z,96290.56
2019-01-11T04:37:35.427Z,96299.20
2019-01-11T04:40:25.208Z,96289.37
2019-01-11T04:43:14.722Z,96292.84
2019-01-11T04:46:05.118Z,96290.56
2019-01-11T04:48:55.697Z,96290.66
2019-01-11T04:51:45.715Z,96289.44
2019-01-11T04:54:36.535Z,96295.63
2019-01-11T04:57:26.567Z,96294.11
2019-01-11T05:00:19.454Z,96295.66
2019-01-11T05:03:08.472Z,96287.80
2019-01-11T05:05:56.942Z,96287.11
2019-01-11T05:08:45.257Z,96288.70
2019-01-11T05:11:33.703Z,96289.78
2019-01-11T05:14:23.411Z,96281.15
2019-01-11T05:17:13.099Z,96285.06
2019-01-11T05:20:02.906Z,96291.66
2019-01-11T05:22:52.358Z,96291.20
2019-01-11T05:25:42.121Z,96292.61
2019-01-11T05:28:32.288Z,96296.98
2019-01-11T05:31:22.061Z,96297.93
2019-01-11T05:34:12.004Z,96296.11
2019-01-11T05:37:02.152Z,96291.28
2019-01-11T05:43:21.497Z,96297.13
2019-01-11T05:46:11.038Z,96297.66
2019-01-11T05:49:01.234Z,96297.56
2019-01-11T05:51:50.932Z,96301.02
2019-01-11T05:54:40.407Z,96300.50
2019-01-11T05:57:30.914Z,96296.23
2019-01-11T06:00:20.707Z,96296.47
2019-01-11T06:03:11.104Z,96302.25
2019-01-11T06:06:19.608Z,96307.54
2019-01-11T06:09:09.131Z,96307.39
2019-01-11T06:11:58.863Z,96306.67
2019-01-11T06:14:48.834Z,96310.84
2019-01-11T06:17:38.709Z,96311.76
2019-01-11T06:20:30.469Z,96304.92
2019-01-11T06:23:20.155Z,96309.83
2019-01-11T06:26:10.276Z,96307.53
2019-01-11T06:28:59.748Z,96302.30
2019-01-11T06:31:49.701Z,96305.25
2019-01-11T06:34:39.572Z,96307.05
2019-01-11T06:37:30.161Z,96305.05
2019-01-11T06:40:18.124Z,96305.31
2019-01-11T06:43:07.686Z,96301.97
2019-01-11T06:45:57.684Z,96301.15
2019-01-11T06:48:47.454Z,96302.71
2019-01-11T06:51:37.681Z,96306.66
2019-01-11T06:54:27.647Z,96309.34
2019-01-11T06:57:17.533Z,96311.61
2019-01-11T07:00:48.622Z,96310.05
2019-01-11T07:03:38.713Z,96308.03
2019-01-11T07:06:28.544Z,96309.41
2019-01-11T07:09:18.404Z,96314.57
2019-01-11T07:12:08.549Z,96313.80
2019-01-11T07:14:58.006Z,96312.20
2019-01-11T07:17:47.550Z,96321.48
2019-01-11T07:20:42.858Z,96317.39
2019-01-11T07:23:29.730Z,96320.94
2019-01-11T07:26:19.433Z,96321.45
2019-01-11T07:29:09.168Z,96324.00
2019-01-11T07:32:17.862Z,96326.95
2019-01-11T07:38:30.393Z,96328.41
2019-01-11T07:41:20.434Z,96325.22
2019-01-11T07:44:09.952Z,96333.22
2019-01-11T07:46:59.956Z,96328.77
2019-01-11T07:49:50.210Z,96320.03
2019-01-11T07:52:40.240Z,96319.70
2019-01-11T07:55:31.860Z,96328.94
2019-01-11T07:58:21.404Z,96332.25
2019-01-11T08:04:07.939Z,96321.66
2019-01-11T08:06:57.745Z,96324.36
2019-01-11T08:12:57.716Z,96327.96
2019-01-11T08:15:47.844Z,96330.47
2019-01-11T08:18:37.889Z,96326.52
2019-01-11T08:21:27.611Z,96337.70
2019-01-11T08:24:17.483Z,96335.80
2019-01-11T08:27:07.185Z,96328.65
2019-01-11T08:29:57.063Z,96332.33
2019-01-11T08:32:47.246Z,96328.32
2019-01-11T08:35:37.085Z,96327.47
2019-01-11T08:38:27.219Z,96321.88
2019-01-11T08:41:17.100Z,96322.38
2019-01-11T08:44:06.741Z,96321.91
2019-01-11T08:46:57.312Z,96318.03
2019-01-11T08:49:47.142Z,96322.49
2019-01-11T08:52:36.903Z,96321.86
2019-01-11T08:55:26.924Z,96315.23
2019-01-11T08:58:16.811Z,96322.08
2019-01-11T09:01:06.699Z,96321.42
2019-01-11T09:03:56.205Z,96321.53
2019-01-11T09:06:45.999Z,96324.84
2019-01-11T09:09:35.443Z,96323.55
2019-01-11T09:12:24.900Z,96320.25
2019-01-11T09:15:15.291Z,96318.70
2019-01-11T09:18:24.017Z,96320.62
2019-01-11T09:21:13.681Z,96328.64
2019-01-11T09:24:03.213Z,96336.67
2019-01-11T09:26:53.345Z,96323.37
2019-01-11T09:29:43.306Z,96330.62
2019-01-11T09:32:33.087Z,96333.53
2019-01-11T09:35:22.698Z,96327.65
2019-01-11T09:38:13.012Z,96329.12
2019-01-11T09:41:03.025Z,96326.02
2019-01-11T09:43:52.792Z,96324.80
2019-01-11T09:46:43.357Z,96319.15
2019-01-11T09:49:33.215Z,96318.23
2019-01-11T09:52:23.728Z,96317.25
2019-01-11T09:55:52.856Z,96319.53
2019-01-11T09:58:42.605Z,96327.47
2019-01-11T10:01:32.837Z,96323.40
2019-01-11T10:07:25.775Z,96310.09
2019-01-11T10:10:15.471Z,96308.27
2019-01-11T10:13:05.062Z,96304.46
2019-01-11T10:15:54.904Z,96302.55
2019-01-11T10:18:45.716Z,96301.80
2019-01-11T10:21:35.202Z,96301.72
2019-01-11T10:24:25.019Z,96301.72
2019-01-11T10:27:14.856Z,96300.91
2019-01-11T10:30:44.343Z,96298.03
2019-01-11T10:33:36.288Z,96288.53
2019-01-11T10:36:25.507Z,96290.41
2019-01-11T10:39:34.905Z,96283.59
2019-01-11T10:42:25.399Z,96283.59
2019-01-11T10:45:16.702Z,96272.08
2019-01-11T10:48:25.383Z,96270.73
2019-01-11T10:51:18.988Z,96270.73
2019-01-11T10:54:37.564Z,96266.67
2019-01-11T10:57:27.404Z,96261.77
2019-01-11T11:00:20.117Z,96260.06
2019-01-11T11:03:09.649Z,96254.38
2019-01-11T11:05:59.774Z,96255.88
2019-01-11T11:09:08.514Z,96249.19
2019-01-11T11:11:59.393Z,96249.19
2019-01-11T11:14:49.620Z,96253.20
2019-01-11T11:17:39.923Z,96257.11
2019-01-11T11:20:29.721Z,96250.90
2019-01-11T11:23:19.658Z,96258.95
2019-01-11T11:26:09.205Z,96250.75
2019-01-11T11:28:59.469Z,96246.25
2019-01-11T11:31:49.011Z,96244.18
2019-01-11T11:38:06.933Z,96238.31
2019-01-11T11:40:57.117Z,96242.83
2019-01-11T11:43:46.824Z,96234.80
2019-01-11T11:46:36.826Z,96236.19
2019-01-11T11:49:26.371Z,96237.30
2019-01-11T11:52:16.344Z,96240.80
2019-01-11T11:55:07.044Z,96235.96
2019-01-11T11:57:56.809Z,96237.51
2019-01-11T12:00:46.363Z,96236.57
2019-01-11T12:03:35.927Z,96231.73
2019-01-11T12:06:25.767Z,96223.20
2019-01-11T12:09:15.292Z,96233.80
2019-01-11T12:12:04.834Z,96224.92
2019-01-11T12:14:54.530Z,96232.28
2019-01-11T12:17:44.306Z,96232.94
2019-01-11T12:20:34.535Z,96230.95
2019-01-11T12:23:25.158Z,96224.88
2019-01-11T12:26:15.099Z,96228.17
2019-01-11T12:29:04.697Z,96219.30
2019-01-11T12:31:54.571Z,96216.08
2019-01-11T12:34:44.300Z,96209.59
2019-01-11T12:37:34.195Z,96209.23
2019-01-11T12:40:24.293Z,96213.54
2019-01-11T12:43:14.012Z,96214.77
2019-01-11T12:46:03.543Z,96217.77
2019-01-11T12:48:53.349Z,96207.97
2019-01-11T12:51:43.120Z,96211.91
2019-01-11T12:54:32.660Z,96207.04
2019-01-11T12:57:22.439Z,96203.34
2019-01-11T13:00:14.041Z,96204.80
2019-01-11T13:06:33.127Z,96200.09
2019-01-11T13:09:22.830Z,96205.06
2019-01-11T13:12:12.756Z,96203.16
2019-01-11T13:15:02.235Z,96192.53
2019-01-11T13:17:51.956Z,96181.19
2019-01-11T13:20:42.029Z,96188.83
2019-01-11T13:23:32.336Z,96186.84
2019-01-11T13:26:23.119Z,96187.83
2019-01-11T13:29:12.846Z,96191.27
2019-01-11T13:32:02.401Z,96190.09
2019-01-11T13:34:52.176Z,96192.81
2019-01-11T13:38:33.885Z,96183.60
2019-01-11T13:41:13.494Z,96185.29
2019-01-11T13:44:03.963Z,96186.48
2019-01-11T13:46:54.024Z,96186.16
2019-01-11T13:49:43.821Z,96190.91
2019-01-11T13:52:33.848Z,96187.39
2019-01-11T13:55:23.760Z,96189.28
2019-01-11T13:58:13.651Z,96196.93
2019-01-11T14:01:03.545Z,96192.59
2019-01-11T14:03:53.323Z,96191.36
2019-01-11T14:06:42.860Z,96186.83
2019-01-11T14:09:32.482Z,96192.59
2019-01-11T14:12:21.945Z,96186.25
2019-01-11T14:15:30.628Z,96189.27
2019-01-11T14:18:20.331Z,96189.27
2019-01-11T14:21:10.386Z,96178.70
2019-01-11T14:24:00.164Z,96179.42
2019-01-11T14:26:50.152Z,96186.95
2019-01-11T14:29:39.941Z,96176.25
2019-01-11T14:32:48.700Z,96176.47
2019-01-11T14:35:38.499Z,96176.47
2019-01-11T14:38:47.180Z,96170.19
2019-01-11T14:44:47.584Z,96165.38
2019-01-11T14:47:37.146Z,96170.13
2019-01-11T14:50:27.193Z,96167.87
2019-01-11T14:53:17.193Z,96161.69
2019-01-11T14:56:06.729Z,96159.70
2019-01-11T14:58:56.190Z,96153.91
2019-01-11T15:01:45.971Z,96159.37
2019-01-11T15:04:36.359Z,96164.67
2019-01-11T15:07:26.175Z,96170.32
2019-01-11T15:10:15.818Z,96168.05
2019-01-11T15:13:45.237Z,96163.12
2019-01-11T15:16:35.309Z,96161.92
2019-01-11T15:19:24.861Z,96156.27
2019-01-11T15:22:15.062Z,96164.54
2019-01-11T15:25:44.719Z,96170.03
2019-01-11T15:28:34.284Z,96175.30
2019-01-11T15:31:23.831Z,96168.10
2019-01-11T15:34:13.656Z,96162.97
2019-01-11T15:37:03.546Z,96165.72
2019-01-11T15:40:36.502Z,96164.66
2019-01-11T15:43:24.567Z,96163.12
2019-01-11T15:46:15.215Z,96163.44
2019-01-11T15:49:05.751Z,96152.20
2019-01-11T15:51:55.231Z,96152.20
2019-01-11T15:55:04.379Z,96154.80
2019-01-11T15:57:53.852Z,96154.80
2019-01-11T16:00:45.403Z,96147.87
2019-01-11T16:03:54.264Z,96151.44
2019-01-11T16:06:44.734Z,96151.44
2019-01-11T16:10:15.053Z,96134.13
2019-01-11T16:13:43.549Z,96134.13
2019-01-11T16:16:59.762Z,96138.20
2019-01-11T16:19:49.528Z,96146.81
2019-01-11T16:22:39.788Z,96142.82
2019-01-11T16:25:29.824Z,96147.92
2019-01-11T16:28:20.125Z,96137.89
2019-01-11T16:31:09.892Z,96153.74
2019-01-11T16:34:18.867Z,96142.17
2019-01-11T16:37:08.849Z,96142.17
2019-01-11T16:39:58.568Z,96139.42
2019-01-11T16:42:48.931Z,96141.88
2019-01-11T16:45:39.233Z,96139.95
2019-01-11T16:48:28.262Z,96133.17
2019-01-11T16:51:18.646Z,96131.44
2019-01-11T16:54:10.946Z,96138.67
2019-01-11T16:57:00.646Z,96145.02
2019-01-11T16:59:50.772Z,96144.52
2019-01-11T17:02:40.991Z,96147.44
2019-01-11T17:05:31.361Z,96136.97
2019-01-11T17:08:42.608Z,96143.52
2019-01-11T17:11:33.189Z,96148.16
2019-01-11T17:14:43.511Z,96143.31
2019-01-11T17:17:33.967Z,96147.40
2019-01-11T17:20:24.178Z,96142.86
2019-01-11T17:23:13.993Z,96140.86
2019-01-11T17:26:03.546Z,96140.47
2019-01-11T17:28:53.595Z,96144.16
2019-01-11T17:31:43.235Z,96138.25
2019-01-11T17:34:32.746Z,96139.88
2019-01-11T17:37:22.438Z,96137.50
2019-01-11T17:40:13.852Z,96136.31
2019-01-11T17:43:03.680Z,96131.83
2019-01-11T17:45:53.436Z,96136.97
2019-01-11T17:48:43.592Z,96134.88
2019-01-11T17:51:33.687Z,96139.58
2019-01-11T17:54:24.075Z,96136.58
2019-01-11T17:57:14.650Z,96137.03
2019-01-11T18:03:22.007Z,96130.95
2019-01-11T18:06:11.911Z,96133.11
2019-01-11T18:09:01.781Z,96133.30
2019-01-11T18:11:51.436Z,96130.50
2019-01-11T18:14:41.485Z,96130.13
2019-01-11T18:17:31.257Z,96128.92
2019-01-11T18:20:23.356Z,96123.27
2019-01-11T18:23:13.132Z,96122.09
2019-01-11T18:26:04.170Z,96115.19
2019-01-11T18:28:54.105Z,96105.25
2019-01-11T18:31:44.411Z,96104.98
2019-01-11T18:34:34.522Z,96105.25
2019-01-11T18:37:24.699Z,96105.19
2019-01-11T18:40:17.504Z,96106.82
2019-01-11T18:43:07.059Z,96099.07
2019-01-11T18:45:56.820Z,96095.70
2019-01-11T18:48:46.636Z,96096.00
2019-01-11T18:51:36.635Z,96098.55
2019-01-11T18:54:26.892Z,96100.38
2019-01-11T18:57:16.850Z,96094.46
2019-01-11T19:00:10.464Z,96098.64
2019-01-11T19:03:00.413Z,96103.05
2019-01-11T19:05:50.477Z,96097.02
2019-01-11T19:08:40.220Z,96091.45
2019-01-11T19:11:30.016Z,96091.65
2019-01-11T19:14:20.015Z,96090.64
2019-01-11T19:17:10.290Z,96081.34
2019-01-11T19:20:00.885Z,96081.16
2019-01-11T19:22:50.714Z,96084.81
2019-01-11T19:25:40.903Z,96086.09
2019-01-11T19:28:31.123Z,96087.98
2019-01-11T19:31:20.889Z,96087.37
2019-01-11T19:34:11.164Z,96086.58
2019-01-11T19:37:01.352Z,96083.94
2019-01-11T19:39:51.342Z,96089.00
2019-01-11T19:43:00.314Z,96083.08
2019-01-11T19:45:50.097Z,96085.64
2019-01-11T19:48:40.528Z,96085.17
2019-01-11T19:51:29.991Z,96081.97
2019-01-11T19:54:20.707Z,96090.28
2019-01-11T19:57:10.576Z,96093.25
2019-01-11T20:00:00.544Z,96095.80
2019-01-11T20:02:50.921Z,96096.22
2019-01-11T20:05:40.847Z,96095.24
2019-01-11T20:08:30.941Z,96106.95
2019-01-11T20:11:20.880Z,96100.94
2019-01-11T20:14:11.377Z,96089.33
2019-01-11T20:17:01.483Z,96084.22
2019-01-11T20:19:51.199Z,96092.37
2019-01-11T20:22:41.256Z,96082.03
2019-01-11T20:25:31.675Z,96077.13
2019-01-11T20:28:21.542Z,96085.75
2019-01-11T20:31:12.369Z,96077.09
2019-01-11T20:34:02.250Z,96084.39
2019-01-11T20:40:43.463Z,96092.33
2019-01-11T20:43:33.875Z,96083.41
2019-01-11T20:46:24.747Z,96093.19
2019-01-11T20:49:14.793Z,96093.77
2019-01-11T20:52:04.910Z,96091.97
2019-01-11T20:54:55.106Z,96085.30
2019-01-11T20:57:57.718Z,96083.56
2019-01-11T21:00:36.629Z,96082.30
2019-01-11T21:03:26.162Z,96084.73
2019-01-11T21:06:16.194Z,96074.98
2019-01-11T21:12:24.802Z,96084.12
2019-01-11T21:15:54.357Z,96089.84
2019-01-11T21:18:44.566Z,96083.25
2019-01-11T21:21:34.320Z,96079.48
2019-01-11T21:24:24.120Z,96078.01
2019-01-11T21:27:13.840Z,96081.12
2019-01-11T21:33:33.054Z,96079.42
2019-01-11T21:36:22.651Z,96083.40
2019-01-11T21:39:12.699Z,96083.40
2019-01-11T21:42:02.806Z,96087.09
2019-01-11T21:44:52.293Z,96082.95
2019-01-11T21:47:42.195Z,96083.45
2019-01-11T21:50:32.067Z,96083.87
2019-01-11T21:53:21.967Z,96083.87
2019-01-11T21:56:11.624Z,96081.61
2019-01-11T21:59:01.448Z,96076.98
2019-01-11T22:01:51.368Z,96084.13
2019-01-11T22:04:41.411Z,96077.14
2019-01-11T22:07:33.582Z,96085.97
2019-01-11T22:10:23.710Z,96083.56
2019-01-11T22:13:14.122Z,96087.44
2019-01-11T22:16:03.898Z,96084.64
2019-01-11T22:18:53.748Z,96086.31
2019-01-11T22:21:43.642Z,96090.20
2019-01-11T22:24:33.703Z,96088.91
2019-01-11T22:27:23.386Z,96094.22
2019-01-11T22:30:15.768Z,96100.30
2019-01-11T22:33:05.586Z,96085.69
2019-01-11T22:35:56.062Z,96087.12
2019-01-11T22:38:46.149Z,96089.11
2019-01-11T22:41:35.711Z,96089.06
2019-01-11T22:44:26.044Z,96088.45
2019-01-11T22:47:15.952Z,96087.12
2019-01-11T22:50:26.980Z,96089.58
2019-01-11T22:53:15.358Z,96080.08
2019-01-11T22:56:03.610Z,96097.69
2019-01-11T22:58:53.329Z,96090.84
2019-01-11T23:02:09.127Z,96092.02
2019-01-11T23:04:59.013Z,96095.48
2019-01-11T23:08:00.541Z,96106.86
2019-01-11T23:11:28.353Z,96102.83
2019-01-11T23:14:18.282Z,96103.19
2019-01-11T23:17:46.188Z,96105.72
2019-01-11T23:20:35.774Z,96105.52
2019-01-11T23:23:25.526Z,96112.02
2019-01-11T23:26:15.344Z,96119.45
2019-01-11T23:29:05.269Z,96113.42
2019-01-11T23:31:55.195Z,96114.22
2019-01-11T23:34:44.641Z,96112.84
2019-01-11T23:37:34.560Z,96113.66
2019-01-11T23:40:24.160Z,96113.68
2019-01-11T23:43:13.794Z,96116.75
2019-01-11T23:46:03.715Z,96111.18
2019-01-11T23:48:53.860Z,96106.69
2019-01-11T23:51:43.396Z,96107.86
2019-01-11T23:54:33.120Z,96118.87
2019-01-11T23:57:22.958Z,96110.67
